sensor_id;sensor_type;location;lat;lon;timestamp;P1;durP1;ratioP1;P2;durP2;ratioP2
31378;SDS011;61664;48.112;11.662;2022-08-21T00:00:17;2.10;;;1.13;;
31378;SDS011;61664;48.112;11.662;2022-08-21T00:02:50;1.13;;;1.02;;
31378;SDS011;61664;48.112;11.662;2022-08-21T00:05:32;1.15;;;1.10;;
31378;SDS011;61664;48.112;11.662;2022-08-21T00:08:04;1.10;;;1.10;;
31378;SDS011;61664;48.112;11.662;2022-08-21T00:10:32;2.85;;;1.10;;
31378;SDS011;61664;48.112;11.662;2022-08-21T00:13:00;1.10;;;1.10;;
31378;SDS011;61664;48.112;11.662;2022-08-21T00:15:30;1.10;;;1.10;;
31378;SDS011;61664;48.112;11.662;2022-08-21T00:17:59;1.27;;;1.25;;
31378;SDS011;61664;48.112;11.662;2022-08-21T00:20:26;1.00;;;1.00;;
31378;SDS011;61664;48.112;11.662;2022-08-21T00:22:53;4.20;;;1.05;;
31378;SDS011;61664;48.112;11.662;2022-08-21T00:25:22;1.00;;;1.00;;
31378;SDS011;61664;48.112;11.662;2022-08-21T00:27:51;0.75;;;0.70;;
31378;SDS011;61664;48.112;11.662;2022-08-21T00:30:19;1.42;;;1.05;;
31378;SDS011;61664;48.112;11.662;2022-08-21T00:32:49;1.10;;;1.10;;
31378;SDS011;61664;48.112;11.662;2022-08-21T00:35:21;0.80;;;0.80;;
31378;SDS011;61664;48.112;11.662;2022-08-21T00:37:52;0.80;;;0.80;;
31378;SDS011;61664;48.112;11.662;2022-08-21T00:40:22;1.38;;;0.88;;
31378;SDS011;61664;48.112;11.662;2022-08-21T00:42:54;2.67;;;0.88;;
31378;SDS011;61664;48.112;11.662;2022-08-21T00:45:22;1.15;;;1.05;;
31378;SDS011;61664;48.112;11.662;2022-08-21T00:47:51;0.85;;;0.85;;
31378;SDS011;61664;48.112;11.662;2022-08-21T00:50:21;0.80;;;0.80;;
31378;SDS011;61664;48.112;11.662;2022-08-21T00:52:51;1.10;;;0.95;;
31378;SDS011;61664;48.112;11.662;2022-08-21T00:55:19;0.80;;;0.80;;
31378;SDS011;61664;48.112;11.662;2022-08-21T00:57:50;0.70;;;0.70;;
31378;SDS011;61664;48.112;11.662;2022-08-21T01:00:23;0.70;;;0.70;;
31378;SDS011;61664;48.112;11.662;2022-08-21T01:02:56;0.90;;;0.90;;
31378;SDS011;61664;48.112;11.662;2022-08-21T01:05:26;0.85;;;0.85;;
31378;SDS011;61664;48.112;11.662;2022-08-21T01:07:53;1.17;;;0.90;;
31378;SDS011;61664;48.112;11.662;2022-08-21T01:10:23;0.80;;;0.80;;
31378;SDS011;61664;48.112;11.662;2022-08-21T01:12:52;0.90;;;0.90;;
31378;SDS011;61664;48.112;11.662;2022-08-21T01:15:23;0.57;;;0.57;;
31378;SDS011;61664;48.112;11.662;2022-08-21T01:17:56;0.77;;;0.70;;
31378;SDS011;61664;48.112;11.662;2022-08-21T01:20:24;1.40;;;0.80;;
31378;SDS011;61664;48.112;11.662;2022-08-21T01:22:58;0.60;;;0.60;;
31378;SDS011;61664;48.112;11.662;2022-08-21T01:25:27;0.80;;;0.73;;
31378;SDS011;61664;48.112;11.662;2022-08-21T01:27:54;1.00;;;0.75;;
31378;SDS011;61664;48.112;11.662;2022-08-21T01:30:24;0.88;;;0.88;;
31378;SDS011;61664;48.112;11.662;2022-08-21T01:35:22;0.70;;;0.70;;
31378;SDS011;61664;48.112;11.662;2022-08-21T01:37:49;1.15;;;0.68;;
31378;SDS011;61664;48.112;11.662;2022-08-21T01:40:16;0.63;;;0.63;;
31378;SDS011;61664;48.112;11.662;2022-08-21T01:42:45;0.80;;;0.80;;
31378;SDS011;61664;48.112;11.662;2022-08-21T01:45:12;4.45;;;0.90;;
31378;SDS011;61664;48.112;11.662;2022-08-21T01:47:42;0.80;;;0.80;;
31378;SDS011;61664;48.112;11.662;2022-08-21T01:50:12;1.13;;;0.77;;
31378;SDS011;61664;48.112;11.662;2022-08-21T01:52:44;0.60;;;0.60;;
31378;SDS011;61664;48.112;11.662;2022-08-21T01:55:12;0.68;;;0.68;;
31378;SDS011;61664;48.112;11.662;2022-08-21T01:57:42;0.80;;;0.80;;
31378;SDS011;61664;48.112;11.662;2022-08-21T02:00:11;0.60;;;0.60;;
31378;SDS011;61664;48.112;11.662;2022-08-21T02:02:42;1.05;;;0.80;;
31378;SDS011;61664;48.112;11.662;2022-08-21T02:05:10;0.90;;;0.90;;
31378;SDS011;61664;48.112;11.662;2022-08-21T02:07:39;0.88;;;0.80;;
31378;SDS011;61664;48.112;11.662;2022-08-21T02:10:13;0.68;;;0.68;;
31378;SDS011;61664;48.112;11.662;2022-08-21T02:12:42;0.70;;;0.50;;
31378;SDS011;61664;48.112;11.662;2022-08-21T02:15:09;0.60;;;0.60;;
31378;SDS011;61664;48.112;11.662;2022-08-21T02:17:38;0.60;;;0.60;;
31378;SDS011;61664;48.112;11.662;2022-08-21T02:20:10;0.75;;;0.75;;
31378;SDS011;61664;48.112;11.662;2022-08-21T02:22:45;0.63;;;0.63;;
31378;SDS011;61664;48.112;11.662;2022-08-21T02:25:16;0.60;;;0.60;;
31378;SDS011;61664;48.112;11.662;2022-08-21T02:27:45;0.70;;;0.70;;
31378;SDS011;61664;48.112;11.662;2022-08-21T02:30:25;0.90;;;0.60;;
31378;SDS011;61664;48.112;11.662;2022-08-21T02:32:57;0.80;;;0.80;;
31378;SDS011;61664;48.112;11.662;2022-08-21T02:35:24;0.80;;;0.80;;
31378;SDS011;61664;48.112;11.662;2022-08-21T02:37:53;0.70;;;0.70;;
31378;SDS011;61664;48.112;11.662;2022-08-21T02:40:25;0.70;;;0.70;;
31378;SDS011;61664;48.112;11.662;2022-08-21T02:42:57;0.60;;;0.60;;
31378;SDS011;61664;48.112;11.662;2022-08-21T02:45:25;0.65;;;0.65;;
31378;SDS011;61664;48.112;11.662;2022-08-21T02:47:56;3.45;;;0.68;;
31378;SDS011;61664;48.112;11.662;2022-08-21T02:50:37;0.73;;;0.73;;
31378;SDS011;61664;48.112;11.662;2022-08-21T02:53:11;0.50;;;0.50;;
31378;SDS011;61664;48.112;11.662;2022-08-21T02:55:46;0.73;;;0.73;;
31378;SDS011;61664;48.112;11.662;2022-08-21T02:58:17;0.90;;;0.90;;
31378;SDS011;61664;48.112;11.662;2022-08-21T03:00:49;0.80;;;0.80;;
31378;SDS011;61664;48.112;11.662;2022-08-21T03:03:17;0.80;;;0.80;;
31378;SDS011;61664;48.112;11.662;2022-08-21T03:05:44;0.95;;;0.85;;
31378;SDS011;61664;48.112;11.662;2022-08-21T03:08:12;0.80;;;0.80;;
31378;SDS011;61664;48.112;11.662;2022-08-21T03:10:42;1.15;;;0.80;;
31378;SDS011;61664;48.112;11.662;2022-08-21T03:13:17;1.92;;;0.70;;
31378;SDS011;61664;48.112;11.662;2022-08-21T03:15:49;0.65;;;0.65;;
31378;SDS011;61664;48.112;11.662;2022-08-21T03:18:17;2.20;;;0.77;;
31378;SDS011;61664;48.112;11.662;2022-08-21T03:20:44;0.90;;;0.70;;
31378;SDS011;61664;48.112;11.662;2022-08-21T03:23:12;0.80;;;0.70;;
31378;SDS011;61664;48.112;11.662;2022-08-21T03:25:44;1.25;;;1.15;;
31378;SDS011;61664;48.112;11.662;2022-08-21T03:28:17;0.80;;;0.80;;
31378;SDS011;61664;48.112;11.662;2022-08-21T03:30:48;1.65;;;0.65;;
31378;SDS011;61664;48.112;11.662;2022-08-21T03:33:17;0.80;;;0.80;;
31378;SDS011;61664;48.112;11.662;2022-08-21T03:35:47;0.93;;;0.82;;
31378;SDS011;61664;48.112;11.662;2022-08-21T03:38:22;1.20;;;0.70;;
31378;SDS011;61664;48.112;11.662;2022-08-21T03:40:52;1.02;;;0.60;;
31378;SDS011;61664;48.112;11.662;2022-08-21T03:43:19;0.80;;;0.68;;
31378;SDS011;61664;48.112;11.662;2022-08-21T03:45:47;0.68;;;0.68;;
31378;SDS011;61664;48.112;11.662;2022-08-21T03:48:16;0.85;;;0.70;;
31378;SDS011;61664;48.112;11.662;2022-08-21T03:50:43;1.77;;;1.02;;
31378;SDS011;61664;48.112;11.662;2022-08-21T03:53:13;0.93;;;0.73;;
31378;SDS011;61664;48.112;11.662;2022-08-21T03:55:43;0.95;;;0.95;;
31378;SDS011;61664;48.112;11.662;2022-08-21T03:58:13;0.98;;;0.98;;
31378;SDS011;61664;48.112;11.662;2022-08-21T04:00:46;0.60;;;0.60;;
31378;SDS011;61664;48.112;11.662;2022-08-21T04:03:17;0.80;;;0.80;;
31378;SDS011;61664;48.112;11.662;2022-08-21T04:05:45;1.30;;;1.00;;
31378;SDS011;61664;48.112;11.662;2022-08-21T04:08:13;0.85;;;0.85;;
31378;SDS011;61664;48.112;11.662;2022-08-21T04:10:45;0.60;;;0.60;;
31378;SDS011;61664;48.112;11.662;2022-08-21T04:13:15;0.77;;;0.70;;
31378;SDS011;61664;48.112;11.662;2022-08-21T04:15:43;0.63;;;0.63;;
31378;SDS011;61664;48.112;11.662;2022-08-21T04:18:10;0.65;;;0.65;;
31378;SDS011;61664;48.112;11.662;2022-08-21T04:20:37;0.82;;;0.82;;
31378;SDS011;61664;48.112;11.662;2022-08-21T04:23:10;0.80;;;0.80;;
31378;SDS011;61664;48.112;11.662;2022-08-21T04:25:49;0.60;;;0.60;;
31378;SDS011;61664;48.112;11.662;2022-08-21T04:28:16;0.90;;;0.90;;
31378;SDS011;61664;48.112;11.662;2022-08-21T04:30:43;0.85;;;0.77;;
31378;SDS011;61664;48.112;11.662;2022-08-21T04:33:11;1.23;;;1.05;;
31378;SDS011;61664;48.112;11.662;2022-08-21T04:35:38;1.10;;;0.80;;
31378;SDS011;61664;48.112;11.662;2022-08-21T04:38:05;0.88;;;0.88;;
31378;SDS011;61664;48.112;11.662;2022-08-21T04:40:32;0.90;;;0.90;;
31378;SDS011;61664;48.112;11.662;2022-08-21T04:43:07;1.15;;;0.60;;
31378;SDS011;61664;48.112;11.662;2022-08-21T04:45:38;2.97;;;1.05;;
31378;SDS011;61664;48.112;11.662;2022-08-21T04:48:11;0.73;;;0.73;;
31378;SDS011;61664;48.112;11.662;2022-08-21T04:50:52;0.87;;;0.80;;
31378;SDS011;61664;48.112;11.662;2022-08-21T04:53:57;0.70;;;0.70;;
31378;SDS011;61664;48.112;11.662;2022-08-21T04:59:17;0.60;;;0.60;;
31378;SDS011;61664;48.112;11.662;2022-08-21T05:01:51;0.77;;;0.77;;
31378;SDS011;61664;48.112;11.662;2022-08-21T05:04:24;0.77;;;0.77;;
31378;SDS011;61664;48.112;11.662;2022-08-21T05:06:57;0.77;;;0.77;;
31378;SDS011;61664;48.112;11.662;2022-08-21T05:09:28;0.60;;;0.60;;
31378;SDS011;61664;48.112;11.662;2022-08-21T05:11:56;1.95;;;0.68;;
31378;SDS011;61664;48.112;11.662;2022-08-21T05:14:24;0.60;;;0.60;;
31378;SDS011;61664;48.112;11.662;2022-08-21T05:16:53;0.70;;;0.70;;
31378;SDS011;61664;48.112;11.662;2022-08-21T05:19:20;0.70;;;0.70;;
31378;SDS011;61664;48.112;11.662;2022-08-21T05:21:47;0.80;;;0.80;;
31378;SDS011;61664;48.112;11.662;2022-08-21T05:24:14;1.70;;;0.70;;
31378;SDS011;61664;48.112;11.662;2022-08-21T05:26:42;0.80;;;0.80;;
31378;SDS011;61664;48.112;11.662;2022-08-21T05:29:11;0.63;;;0.63;;
31378;SDS011;61664;48.112;11.662;2022-08-21T05:31:41;0.80;;;0.80;;
31378;SDS011;61664;48.112;11.662;2022-08-21T05:34:10;0.80;;;0.80;;
31378;SDS011;61664;48.112;11.662;2022-08-21T05:36:41;1.33;;;0.75;;
31378;SDS011;61664;48.112;11.662;2022-08-21T05:39:08;0.88;;;0.75;;
31378;SDS011;61664;48.112;11.662;2022-08-21T05:41:35;0.85;;;0.85;;
31378;SDS011;61664;48.112;11.662;2022-08-21T05:44:02;0.80;;;0.80;;
31378;SDS011;61664;48.112;11.662;2022-08-21T05:46:35;0.80;;;0.80;;
31378;SDS011;61664;48.112;11.662;2022-08-21T05:49:02;1.50;;;1.00;;
31378;SDS011;61664;48.112;11.662;2022-08-21T05:51:30;1.85;;;0.75;;
31378;SDS011;61664;48.112;11.662;2022-08-21T05:53:57;1.85;;;0.70;;
31378;SDS011;61664;48.112;11.662;2022-08-21T05:56:24;1.00;;;0.63;;
31378;SDS011;61664;48.112;11.662;2022-08-21T05:58:51;0.90;;;0.90;;
31378;SDS011;61664;48.112;11.662;2022-08-21T06:01:18;0.70;;;0.70;;
31378;SDS011;61664;48.112;11.662;2022-08-21T06:03:45;0.70;;;0.70;;
31378;SDS011;61664;48.112;11.662;2022-08-21T06:06:12;0.70;;;0.70;;
31378;SDS011;61664;48.112;11.662;2022-08-21T06:08:39;0.70;;;0.70;;
31378;SDS011;61664;48.112;11.662;2022-08-21T06:11:06;1.10;;;1.00;;
31378;SDS011;61664;48.112;11.662;2022-08-21T06:13:35;0.90;;;0.90;;
31378;SDS011;61664;48.112;11.662;2022-08-21T06:16:04;1.00;;;0.90;;
31378;SDS011;61664;48.112;11.662;2022-08-21T06:18:35;0.77;;;0.73;;
31378;SDS011;61664;48.112;11.662;2022-08-21T06:21:03;1.00;;;0.90;;
31378;SDS011;61664;48.112;11.662;2022-08-21T06:23:32;1.00;;;1.00;;
31378;SDS011;61664;48.112;11.662;2022-08-21T06:26:04;1.40;;;1.17;;
31378;SDS011;61664;48.112;11.662;2022-08-21T06:28:33;1.05;;;0.75;;
31378;SDS011;61664;48.112;11.662;2022-08-21T06:31:01;1.00;;;1.00;;
31378;SDS011;61664;48.112;11.662;2022-08-21T06:33:48;0.88;;;0.88;;
31378;SDS011;61664;48.112;11.662;2022-08-21T06:36:16;2.08;;;0.93;;
31378;SDS011;61664;48.112;11.662;2022-08-21T06:38:44;0.82;;;0.82;;
31378;SDS011;61664;48.112;11.662;2022-08-21T06:41:17;0.90;;;0.90;;
31378;SDS011;61664;48.112;11.662;2022-08-21T06:43:51;1.17;;;1.08;;
31378;SDS011;61664;48.112;11.662;2022-08-21T06:46:20;0.63;;;0.63;;
31378;SDS011;61664;48.112;11.662;2022-08-21T06:48:47;0.88;;;0.88;;
31378;SDS011;61664;48.112;11.662;2022-08-21T06:51:14;1.02;;;0.90;;
31378;SDS011;61664;48.112;11.662;2022-08-21T06:53:41;0.80;;;0.80;;
31378;SDS011;61664;48.112;11.662;2022-08-21T06:56:09;0.90;;;0.90;;
31378;SDS011;61664;48.112;11.662;2022-08-21T06:58:36;1.17;;;1.13;;
31378;SDS011;61664;48.112;11.662;2022-08-21T07:01:04;1.52;;;1.42;;
31378;SDS011;61664;48.112;11.662;2022-08-21T07:03:35;0.80;;;0.80;;
31378;SDS011;61664;48.112;11.662;2022-08-21T07:06:05;1.55;;;1.20;;
31378;SDS011;61664;48.112;11.662;2022-08-21T07:08:35;2.00;;;1.00;;
31378;SDS011;61664;48.112;11.662;2022-08-21T07:11:04;1.40;;;1.30;;
31378;SDS011;61664;48.112;11.662;2022-08-21T07:13:40;1.38;;;1.27;;
31378;SDS011;61664;48.112;11.662;2022-08-21T07:16:07;1.55;;;1.40;;
31378;SDS011;61664;48.112;11.662;2022-08-21T07:18:34;1.67;;;1.58;;
31378;SDS011;61664;48.112;11.662;2022-08-21T07:21:02;1.60;;;1.50;;
31378;SDS011;61664;48.112;11.662;2022-08-21T07:23:32;3.60;;;1.95;;
31378;SDS011;61664;48.112;11.662;2022-08-21T07:26:07;1.70;;;1.60;;
31378;SDS011;61664;48.112;11.662;2022-08-21T07:28:34;1.83;;;1.65;;
31378;SDS011;61664;48.112;11.662;2022-08-21T07:31:02;3.25;;;1.98;;
31378;SDS011;61664;48.112;11.662;2022-08-21T07:33:31;1.92;;;1.83;;
31378;SDS011;61664;48.112;11.662;2022-08-21T07:36:00;1.90;;;1.80;;
31378;SDS011;61664;48.112;11.662;2022-08-21T07:38:27;1.67;;;1.58;;
31378;SDS011;61664;48.112;11.662;2022-08-21T07:40:55;2.00;;;1.90;;
31378;SDS011;61664;48.112;11.662;2022-08-21T07:43:26;5.72;;;1.75;;
31378;SDS011;61664;48.112;11.662;2022-08-21T07:45:54;2.53;;;1.95;;
31378;SDS011;61664;48.112;11.662;2022-08-21T07:48:21;2.13;;;1.92;;
31378;SDS011;61664;48.112;11.662;2022-08-21T07:50:49;1.95;;;1.83;;
31378;SDS011;61664;48.112;11.662;2022-08-21T07:53:17;2.00;;;1.90;;
31378;SDS011;61664;48.112;11.662;2022-08-21T07:55:44;2.22;;;2.10;;
31378;SDS011;61664;48.112;11.662;2022-08-21T07:58:11;2.25;;;2.15;;
31378;SDS011;61664;48.112;11.662;2022-08-21T08:00:38;1.65;;;1.55;;
31378;SDS011;61664;48.112;11.662;2022-08-21T08:03:06;2.10;;;2.00;;
31378;SDS011;61664;48.112;11.662;2022-08-21T08:05:35;2.60;;;1.98;;
31378;SDS011;61664;48.112;11.662;2022-08-21T08:08:03;1.98;;;1.75;;
31378;SDS011;61664;48.112;11.662;2022-08-21T08:10:31;1.83;;;1.73;;
31378;SDS011;61664;48.112;11.662;2022-08-21T08:12:58;1.73;;;1.63;;
31378;SDS011;61664;48.112;11.662;2022-08-21T08:15:27;1.92;;;1.80;;
31378;SDS011;61664;48.112;11.662;2022-08-21T08:17:56;1.77;;;1.67;;
31378;SDS011;61664;48.112;11.662;2022-08-21T08:20:24;1.92;;;1.75;;
31378;SDS011;61664;48.112;11.662;2022-08-21T08:22:55;2.20;;;2.08;;
31378;SDS011;61664;48.112;11.662;2022-08-21T08:25:23;2.67;;;2.47;;
31378;SDS011;61664;48.112;11.662;2022-08-21T08:28:01;2.22;;;2.13;;
31378;SDS011;61664;48.112;11.662;2022-08-21T08:30:42;1.75;;;1.65;;
31378;SDS011;61664;48.112;11.662;2022-08-21T08:33:12;1.83;;;1.73;;
31378;SDS011;61664;48.112;11.662;2022-08-21T08:35:41;1.65;;;1.55;;
31378;SDS011;61664;48.112;11.662;2022-08-21T08:38:13;1.75;;;1.65;;
31378;SDS011;61664;48.112;11.662;2022-08-21T08:40:58;2.10;;;1.92;;
31378;SDS011;61664;48.112;11.662;2022-08-21T08:43:35;1.98;;;1.88;;
31378;SDS011;61664;48.112;11.662;2022-08-21T08:46:03;1.92;;;1.83;;
31378;SDS011;61664;48.112;11.662;2022-08-21T08:48:59;1.95;;;1.85;;
31378;SDS011;61664;48.112;11.662;2022-08-21T08:51:45;1.60;;;1.45;;
31378;SDS011;61664;48.112;11.662;2022-08-21T08:54:21;1.70;;;1.60;;
31378;SDS011;61664;48.112;11.662;2022-08-21T08:57:20;1.63;;;1.52;;
31378;SDS011;61664;48.112;11.662;2022-08-21T08:59:56;1.77;;;1.67;;
31378;SDS011;61664;48.112;11.662;2022-08-21T09:02:28;1.63;;;1.52;;
31378;SDS011;61664;48.112;11.662;2022-08-21T09:04:55;1.90;;;1.80;;
31378;SDS011;61664;48.112;11.662;2022-08-21T09:12:55;1.90;;;1.80;;
31378;SDS011;61664;48.112;11.662;2022-08-21T09:27:05;2.20;;;2.00;;
31378;SDS011;61664;48.112;11.662;2022-08-21T09:29:41;2.97;;;1.50;;
31378;SDS011;61664;48.112;11.662;2022-08-21T09:32:17;1.90;;;1.80;;
31378;SDS011;61664;48.112;11.662;2022-08-21T09:35:10;1.85;;;1.75;;
31378;SDS011;61664;48.112;11.662;2022-08-21T09:37:48;1.50;;;1.50;;
31378;SDS011;61664;48.112;11.662;2022-08-21T09:40:45;1.30;;;1.30;;
31378;SDS011;61664;48.112;11.662;2022-08-21T09:43:24;1.43;;;1.33;;
31378;SDS011;61664;48.112;11.662;2022-08-21T09:46:34;1.50;;;1.45;;
31378;SDS011;61664;48.112;11.662;2022-08-21T09:48:51;1.58;;;1.35;;
31378;SDS011;61664;48.112;11.662;2022-08-21T09:51:24;2.25;;;1.10;;
31378;SDS011;61664;48.112;11.662;2022-08-21T09:54:00;1.33;;;1.33;;
31378;SDS011;61664;48.112;11.662;2022-08-21T10:00:18;3.08;;;1.40;;
31378;SDS011;61664;48.112;11.662;2022-08-21T10:02:49;1.70;;;1.60;;
31378;SDS011;61664;48.112;11.662;2022-08-21T10:05:26;1.67;;;1.58;;
31378;SDS011;61664;48.112;11.662;2022-08-21T10:07:54;1.40;;;1.30;;
31378;SDS011;61664;48.112;11.662;2022-08-21T10:10:31;1.42;;;1.35;;
31378;SDS011;61664;48.112;11.662;2022-08-21T10:13:10;1.20;;;1.20;;
31378;SDS011;61664;48.112;11.662;2022-08-21T10:15:47;1.40;;;1.30;;
31378;SDS011;61664;48.112;11.662;2022-08-21T10:18:39;1.55;;;1.45;;
31378;SDS011;61664;48.112;11.662;2022-08-21T10:29:55;1.95;;;1.40;;
31378;SDS011;61664;48.112;11.662;2022-08-21T10:35:18;1.23;;;1.13;;
31378;SDS011;61664;48.112;11.662;2022-08-21T10:47:16;1.13;;;1.10;;
31378;SDS011;61664;48.112;11.662;2022-08-21T10:50:19;1.05;;;1.05;;
31378;SDS011;61664;48.112;11.662;2022-08-21T11:04:18;1.30;;;1.30;;
31378;SDS011;61664;48.112;11.662;2022-08-21T11:07:34;1.13;;;1.13;;
31378;SDS011;61664;48.112;11.662;2022-08-21T11:13:31;1.98;;;1.08;;
31378;SDS011;61664;48.112;11.662;2022-08-21T11:16:22;1.23;;;1.20;;
31378;SDS011;61664;48.112;11.662;2022-08-21T11:19:16;1.02;;;1.02;;
31378;SDS011;61664;48.112;11.662;2022-08-21T11:27:49;0.90;;;0.90;;
31378;SDS011;61664;48.112;11.662;2022-08-21T11:30:31;1.00;;;0.98;;
31378;SDS011;61664;48.112;11.662;2022-08-21T11:45:32;1.20;;;1.10;;
31378;SDS011;61664;48.112;11.662;2022-08-21T11:48:23;1.30;;;1.20;;
31378;SDS011;61664;48.112;11.662;2022-08-21T11:51:33;1.00;;;1.00;;
31378;SDS011;61664;48.112;11.662;2022-08-21T11:54:14;1.00;;;1.00;;
31378;SDS011;61664;48.112;11.662;2022-08-21T11:59:45;0.70;;;0.70;;
31378;SDS011;61664;48.112;11.662;2022-08-21T12:02:43;1.13;;;1.10;;
31378;SDS011;61664;48.112;11.662;2022-08-21T12:10:45;1.00;;;1.00;;
31378;SDS011;61664;48.112;11.662;2022-08-21T12:13:27;0.90;;;0.90;;
31378;SDS011;61664;48.112;11.662;2022-08-21T12:16:06;1.48;;;1.38;;
31378;SDS011;61664;48.112;11.662;2022-08-21T12:18:42;1.10;;;1.10;;
31378;SDS011;61664;48.112;11.662;2022-08-21T12:21:17;1.13;;;1.13;;
31378;SDS011;61664;48.112;11.662;2022-08-21T12:29:25;1.27;;;1.17;;
31378;SDS011;61664;48.112;11.662;2022-08-21T12:31:57;1.77;;;1.67;;
31378;SDS011;61664;48.112;11.662;2022-08-21T12:34:38;1.27;;;1.20;;
31378;SDS011;61664;48.112;11.662;2022-08-21T12:37:16;1.50;;;1.40;;
31378;SDS011;61664;48.112;11.662;2022-08-21T12:40:11;1.13;;;1.10;;
31378;SDS011;61664;48.112;11.662;2022-08-21T12:42:52;1.52;;;1.40;;
31378;SDS011;61664;48.112;11.662;2022-08-21T12:45:36;1.42;;;1.33;;
31378;SDS011;61664;48.112;11.662;2022-08-21T12:50:51;1.45;;;1.35;;
31378;SDS011;61664;48.112;11.662;2022-08-21T12:56:08;1.65;;;1.55;;
31378;SDS011;61664;48.112;11.662;2022-08-21T12:58:40;1.48;;;1.40;;
31378;SDS011;61664;48.112;11.662;2022-08-21T13:01:33;1.25;;;1.25;;
31378;SDS011;61664;48.112;11.662;2022-08-21T13:04:08;1.58;;;1.48;;
31378;SDS011;61664;48.112;11.662;2022-08-21T13:06:41;1.20;;;1.20;;
31378;SDS011;61664;48.112;11.662;2022-08-21T13:09:15;1.38;;;1.30;;
31378;SDS011;61664;48.112;11.662;2022-08-21T13:11:46;1.20;;;1.20;;
31378;SDS011;61664;48.112;11.662;2022-08-21T13:14:21;1.05;;;1.05;;
31378;SDS011;61664;48.112;11.662;2022-08-21T13:16:56;1.40;;;1.30;;
31378;SDS011;61664;48.112;11.662;2022-08-21T13:19:26;1.63;;;1.52;;
31378;SDS011;61664;48.112;11.662;2022-08-21T13:21:55;1.17;;;1.13;;
31378;SDS011;61664;48.112;11.662;2022-08-21T13:24:27;1.75;;;1.50;;
31378;SDS011;61664;48.112;11.662;2022-08-21T13:27:18;1.27;;;1.27;;
31378;SDS011;61664;48.112;11.662;2022-08-21T13:30:03;1.05;;;1.05;;
31378;SDS011;61664;48.112;11.662;2022-08-21T13:32:48;1.27;;;1.10;;
31378;SDS011;61664;48.112;11.662;2022-08-21T13:35:28;1.50;;;1.40;;
31378;SDS011;61664;48.112;11.662;2022-08-21T13:38:17;2.83;;;1.42;;
31378;SDS011;61664;48.112;11.662;2022-08-21T13:40:54;1.00;;;1.00;;
31378;SDS011;61664;48.112;11.662;2022-08-21T13:43:26;1.30;;;1.20;;
31378;SDS011;61664;48.112;11.662;2022-08-21T13:45:59;1.38;;;1.27;;
31378;SDS011;61664;48.112;11.662;2022-08-21T13:48:33;1.52;;;1.42;;
31378;SDS011;61664;48.112;11.662;2022-08-21T13:51:02;4.25;;;1.33;;
31378;SDS011;61664;48.112;11.662;2022-08-21T13:53:32;1.33;;;1.00;;
31378;SDS011;61664;48.112;11.662;2022-08-21T13:56:01;2.65;;;1.25;;
31378;SDS011;61664;48.112;11.662;2022-08-21T13:58:32;1.42;;;1.33;;
31378;SDS011;61664;48.112;11.662;2022-08-21T14:04:00;1.05;;;1.05;;
31378;SDS011;61664;48.112;11.662;2022-08-21T14:06:40;1.30;;;1.20;;
31378;SDS011;61664;48.112;11.662;2022-08-21T14:09:13;1.70;;;1.60;;
31378;SDS011;61664;48.112;11.662;2022-08-21T14:11:54;1.45;;;1.40;;
31378;SDS011;61664;48.112;11.662;2022-08-21T14:14:26;1.02;;;1.02;;
31378;SDS011;61664;48.112;11.662;2022-08-21T14:17:01;1.40;;;1.30;;
31378;SDS011;61664;48.112;11.662;2022-08-21T14:19:51;1.45;;;1.38;;
31378;SDS011;61664;48.112;11.662;2022-08-21T14:25:03;1.05;;;0.95;;
31378;SDS011;61664;48.112;11.662;2022-08-21T14:27:33;1.10;;;1.10;;
31378;SDS011;61664;48.112;11.662;2022-08-21T14:30:20;0.85;;;0.85;;
31378;SDS011;61664;48.112;11.662;2022-08-21T14:32:54;0.90;;;0.90;;
31378;SDS011;61664;48.112;11.662;2022-08-21T14:35:21;1.00;;;1.00;;
31378;SDS011;61664;48.112;11.662;2022-08-21T14:37:49;0.70;;;0.70;;
31378;SDS011;61664;48.112;11.662;2022-08-21T14:40:18;0.70;;;0.70;;
31378;SDS011;61664;48.112;11.662;2022-08-21T14:42:48;0.80;;;0.80;;
31378;SDS011;61664;48.112;11.662;2022-08-21T14:45:17;1.00;;;1.00;;
31378;SDS011;61664;48.112;11.662;2022-08-21T14:47:56;0.85;;;0.85;;
31378;SDS011;61664;48.112;11.662;2022-08-21T14:50:25;0.85;;;0.80;;
31378;SDS011;61664;48.112;11.662;2022-08-21T14:52:53;0.80;;;0.80;;
31378;SDS011;61664;48.112;11.662;2022-08-21T14:55:21;0.85;;;0.85;;
31378;SDS011;61664;48.112;11.662;2022-08-21T14:57:50;0.80;;;0.80;;
31378;SDS011;61664;48.112;11.662;2022-08-21T15:00:20;0.82;;;0.82;;
31378;SDS011;61664;48.112;11.662;2022-08-21T15:03:01;0.60;;;0.60;;
31378;SDS011;61664;48.112;11.662;2022-08-21T15:05:28;0.80;;;0.80;;
31378;SDS011;61664;48.112;11.662;2022-08-21T15:07:59;0.93;;;0.82;;
31378;SDS011;61664;48.112;11.662;2022-08-21T15:10:27;1.27;;;0.73;;
31378;SDS011;61664;48.112;11.662;2022-08-21T15:12:56;0.80;;;0.80;;
31378;SDS011;61664;48.112;11.662;2022-08-21T15:15:24;1.38;;;1.00;;
31378;SDS011;61664;48.112;11.662;2022-08-21T15:17:50;1.13;;;0.98;;
31378;SDS011;61664;48.112;11.662;2022-08-21T15:20:17;0.82;;;0.82;;
31378;SDS011;61664;48.112;11.662;2022-08-21T15:22:44;1.38;;;1.27;;
31378;SDS011;61664;48.112;11.662;2022-08-21T15:25:13;0.90;;;0.90;;
31378;SDS011;61664;48.112;11.662;2022-08-21T15:27:40;0.80;;;0.80;;
31378;SDS011;61664;48.112;11.662;2022-08-21T15:30:07;0.77;;;0.77;;
31378;SDS011;61664;48.112;11.662;2022-08-21T15:32:35;0.70;;;0.70;;
31378;SDS011;61664;48.112;11.662;2022-08-21T15:35:04;0.70;;;0.70;;
31378;SDS011;61664;48.112;11.662;2022-08-21T15:37:31;1.13;;;0.88;;
31378;SDS011;61664;48.112;11.662;2022-08-21T15:39:59;0.80;;;0.80;;
31378;SDS011;61664;48.112;11.662;2022-08-21T15:42:26;0.80;;;0.80;;
31378;SDS011;61664;48.112;11.662;2022-08-21T15:44:54;1.17;;;1.08;;
31378;SDS011;61664;48.112;11.662;2022-08-21T15:47:30;1.17;;;1.10;;
31378;SDS011;61664;48.112;11.662;2022-08-21T15:50:02;1.02;;;1.02;;
31378;SDS011;61664;48.112;11.662;2022-08-21T15:52:33;1.00;;;1.00;;
31378;SDS011;61664;48.112;11.662;2022-08-21T15:55:00;1.05;;;0.85;;
31378;SDS011;61664;48.112;11.662;2022-08-21T15:57:27;0.90;;;0.90;;
31378;SDS011;61664;48.112;11.662;2022-08-21T15:59:58;2.80;;;1.17;;
31378;SDS011;61664;48.112;11.662;2022-08-21T16:02:42;1.50;;;1.40;;
31378;SDS011;61664;48.112;11.662;2022-08-21T16:05:13;2.00;;;0.93;;
31378;SDS011;61664;48.112;11.662;2022-08-21T16:07:43;0.88;;;0.88;;
31378;SDS011;61664;48.112;11.662;2022-08-21T16:10:12;1.65;;;0.95;;
31378;SDS011;61664;48.112;11.662;2022-08-21T16:12:45;0.93;;;0.93;;
31378;SDS011;61664;48.112;11.662;2022-08-21T16:15:17;0.95;;;0.80;;
31378;SDS011;61664;48.112;11.662;2022-08-21T16:17:46;1.08;;;0.98;;
31378;SDS011;61664;48.112;11.662;2022-08-21T16:22:47;0.88;;;0.88;;
31378;SDS011;61664;48.112;11.662;2022-08-21T16:25:14;2.33;;;1.15;;
31378;SDS011;61664;48.112;11.662;2022-08-21T16:27:43;1.38;;;1.27;;
31378;SDS011;61664;48.112;11.662;2022-08-21T16:30:18;1.20;;;1.10;;
31378;SDS011;61664;48.112;11.662;2022-08-21T16:32:46;1.35;;;1.25;;
31378;SDS011;61664;48.112;11.662;2022-08-21T16:35:15;1.20;;;1.10;;
31378;SDS011;61664;48.112;11.662;2022-08-21T16:37:46;1.10;;;1.08;;
31378;SDS011;61664;48.112;11.662;2022-08-21T16:40:18;1.10;;;1.10;;
31378;SDS011;61664;48.112;11.662;2022-08-21T16:42:48;1.40;;;1.30;;
31378;SDS011;61664;48.112;11.662;2022-08-21T16:45:16;1.20;;;1.20;;
31378;SDS011;61664;48.112;11.662;2022-08-21T16:47:46;1.00;;;1.00;;
31378;SDS011;61664;48.112;11.662;2022-08-21T16:50:14;0.90;;;0.90;;